TimeEST,TemperatureF,Dew PointF,Humidity,Sea Level PressureIn,VisibilityMPH,Wind Direction,Wind SpeedMPH,Gust SpeedMPH,PrecipitationIn,Events,Conditions,WindDirDegrees,DateUTC
12:53 AM,32.0,17.1,54,30.36,10.0,North,6.9,-,N/A,,Clear,350,2013-11-20 05:53:00
1:53 AM,32.0,17.1,54,30.38,10.0,North,6.9,-,N/A,,Clear,350,2013-11-20 06:53:00
2:53 AM,30.9,17.1,57,30.40,10.0,NNW,9.2,-,N/A,,Clear,340,2013-11-20 07:53:00
3:53 AM,30.0,17.1,59,30.42,10.0,NNW,11.5,-,N/A,,Clear,340,2013-11-20 08:53:00
4:53 AM,28.9,15.1,56,30.45,10.0,NNW,8.1,-,N/A,,Clear,330,2013-11-20 09:53:00
5:53 AM,28.0,14.0,56,30.48,10.0,NW,5.8,-,N/A,,Clear,310,2013-11-20 10:53:00
6:53 AM,28.0,12.9,53,30.52,10.0,NNW,10.4,-,N/A,,Clear,330,2013-11-20 11:53:00
7:53 AM,30.0,12.9,49,30.54,10.0,NW,8.1,-,N/A,,Clear,320,2013-11-20 12:53:00
8:53 AM,33.1,12.9,43,30.56,10.0,North,16.1,20.7,N/A,,Clear,360,2013-11-20 13:53:00
9:53 AM,36.0,12.0,37,30.57,10.0,North,11.5,-,N/A,,Clear,350,2013-11-20 14:53:00
10:53 AM,37.9,12.0,35,30.58,10.0,North,8.1,-,N/A,,Clear,10,2013-11-20 15:53:00
11:53 AM,39.9,10.9,31,30.56,10.0,NE,10.4,19.6,N/A,,Clear,40,2013-11-20 16:53:00
12:53 PM,41.0,10.9,29,30.56,10.0,North,11.5,-,N/A,,Clear,360,2013-11-20 17:53:00
1:53 PM,42.1,10.0,27,30.55,10.0,NNE,8.1,-,N/A,,Clear,20,2013-11-20 18:53:00
2:53 PM,42.1,10.0,27,30.55,10.0,NE,6.9,-,N/A,,Clear,40,2013-11-20 19:53:00
3:53 PM,41.0,10.0,28,30.57,10.0,NE,5.8,-,N/A,,Clear,40,2013-11-20 20:53:00
4:53 PM,32.0,15.1,50,30.58,10.0,Calm,Calm,-,N/A,,Clear,0,2013-11-20 21:53:00
5:53 PM,30.9,17.1,57,30.59,10.0,Calm,Calm,-,N/A,,Clear,0,2013-11-20 22:53:00
6:53 PM,28.0,19.0,69,30.60,10.0,Calm,Calm,-,N/A,,Clear,0,2013-11-20 23:53:00
7:53 PM,26.1,18.0,71,30.61,10.0,Calm,Calm,-,N/A,,Clear,0,2013-11-21 00:53:00
8:53 PM,26.1,16.0,66,30.62,9.0,Calm,Calm,-,N/A,,Clear,0,2013-11-21 01:53:00
9:53 PM,24.1,17.1,75,30.62,10.0,Calm,Calm,-,N/A,,Clear,0,2013-11-21 02:53:00
10:53 PM,24.1,16.0,71,30.63,10.0,Calm,Calm,-,N/A,,Clear,0,2013-11-21 03:53:00
11:53 PM,21.9,16.0,78,30.64,6.0,Calm,Calm,-,N/A,,Haze,0,2013-11-21 04:53:00